sensor_id;sensor_type;location;lat;lon;timestamp;pressure;altitude;pressure_sealevel;temperature;humidity
47054;BME280;32811;52.382;5.270;2023-01-25T00:00:29;103892.47;;;-0.18;100.00
47054;BME280;32811;52.382;5.270;2023-01-25T00:02:57;103896.66;;;-0.19;100.00
47054;BME280;32811;52.382;5.270;2023-01-25T00:05:24;103875.47;;;-0.28;100.00
47054;BME280;32811;52.382;5.270;2023-01-25T00:07:52;103884.13;;;-0.26;100.00
47054;BME280;32811;52.382;5.270;2023-01-25T00:10:19;103877.25;;;-0.36;100.00
47054;BME280;32811;52.382;5.270;2023-01-25T00:12:46;103885.19;;;-0.24;100.00
47054;BME280;32811;52.382;5.270;2023-01-25T00:15:14;103883.09;;;-0.19;100.00
47054;BME280;32811;52.382;5.270;2023-01-25T00:17:41;103868.00;;;-0.27;100.00
47054;BME280;32811;52.382;5.270;2023-01-25T00:20:08;103867.84;;;-0.19;100.00
47054;BME280;32811;52.382;5.270;2023-01-25T00:22:35;103871.88;;;-0.22;100.00
47054;BME280;32811;52.382;5.270;2023-01-25T00:25:02;103867.25;;;-0.26;100.00
47054;BME280;32811;52.382;5.270;2023-01-25T00:27:29;103876.53;;;-0.26;100.00
47054;BME280;32811;52.382;5.270;2023-01-25T00:29:56;103870.22;;;-0.30;100.00
47054;BME280;32811;52.382;5.270;2023-01-25T00:34:50;103873.53;;;-0.31;100.00
47054;BME280;32811;52.382;5.270;2023-01-25T00:39:44;103872.47;;;-0.33;100.00
47054;BME280;32811;52.382;5.270;2023-01-25T00:42:11;103870.56;;;-0.27;100.00
47054;BME280;32811;52.382;5.270;2023-01-25T00:44:38;103855.75;;;-0.39;100.00
47054;BME280;32811;52.382;5.270;2023-01-25T00:47:06;103870.56;;;-0.27;100.00
47054;BME280;32811;52.382;5.270;2023-01-25T00:49:32;103861.00;;;-0.38;100.00
47054;BME280;32811;52.382;5.270;2023-01-25T00:51:59;103844.84;;;-0.38;100.00
47054;BME280;32811;52.382;5.270;2023-01-25T00:54:26;103860.09;;;-0.30;100.00
47054;BME280;32811;52.382;5.270;2023-01-25T00:56:54;103853.38;;;-0.38;100.00
47054;BME280;32811;52.382;5.270;2023-01-25T00:59:22;103862.78;;;-0.37;100.00
47054;BME280;32811;52.382;5.270;2023-01-25T01:01:50;103857.41;;;-0.40;100.00
47054;BME280;32811;52.382;5.270;2023-01-25T01:04:18;103842.78;;;-0.51;100.00
47054;BME280;32811;52.382;5.270;2023-01-25T01:06:45;103861.28;;;-0.44;100.00
47054;BME280;32811;52.382;5.270;2023-01-25T01:09:15;103853.66;;;-0.44;100.00
47054;BME280;32811;52.382;5.270;2023-01-25T01:11:43;103842.63;;;-0.44;100.00
47054;BME280;32811;52.382;5.270;2023-01-25T01:14:11;103842.47;;;-0.46;100.00
47054;BME280;32811;52.382;5.270;2023-01-25T01:16:39;103839.78;;;-0.47;100.00
47054;BME280;32811;52.382;5.270;2023-01-25T01:19:06;103839.22;;;-0.45;100.00
47054;BME280;32811;52.382;5.270;2023-01-25T01:21:33;103827.56;;;-0.51;100.00
47054;BME280;32811;52.382;5.270;2023-01-25T01:24:00;103819.34;;;-0.57;100.00
47054;BME280;32811;52.382;5.270;2023-01-25T01:26:27;103835.31;;;-0.50;100.00
47054;BME280;32811;52.382;5.270;2023-01-25T01:28:54;103830.81;;;-0.52;100.00
47054;BME280;32811;52.382;5.270;2023-01-25T01:31:22;103833.97;;;-0.55;100.00
47054;BME280;32811;52.382;5.270;2023-01-25T01:33:51;103830.66;;;-0.54;100.00
47054;BME280;32811;52.382;5.270;2023-01-25T01:36:20;103834.69;;;-0.47;100.00
47054;BME280;32811;52.382;5.270;2023-01-25T01:38:47;103833.09;;;-0.47;100.00
47054;BME280;32811;52.382;5.270;2023-01-25T01:41:15;103833.22;;;-0.45;100.00
47054;BME280;32811;52.382;5.270;2023-01-25T01:43:42;103831.00;;;-0.42;100.00
47054;BME280;32811;52.382;5.270;2023-01-25T01:48:48;103837.13;;;-0.40;100.00
47054;BME280;32811;52.382;5.270;2023-01-25T01:54:00;103827.25;;;-0.46;100.00
47054;BME280;32811;52.382;5.270;2023-01-25T01:56:33;103835.47;;;-0.48;100.00
47054;BME280;32811;52.382;5.270;2023-01-25T01:59:02;103829.63;;;-0.47;100.00
47054;BME280;32811;52.382;5.270;2023-01-25T02:01:31;103834.69;;;-0.47;100.00
47054;BME280;32811;52.382;5.270;2023-01-25T02:03:58;103820.97;;;-0.49;100.00
47054;BME280;32811;52.382;5.270;2023-01-25T02:06:42;103823.97;;;-0.53;100.00
47054;BME280;32811;52.382;5.270;2023-01-25T02:09:10;103829.34;;;-0.50;100.00
47054;BME280;32811;52.382;5.270;2023-01-25T02:11:38;103812.47;;;-0.58;100.00
47054;BME280;32811;52.382;5.270;2023-01-25T02:14:07;103815.31;;;-0.55;100.00
47054;BME280;32811;52.382;5.270;2023-01-25T02:16:34;103813.50;;;-0.56;100.00
47054;BME280;32811;52.382;5.270;2023-01-25T02:19:00;103815.00;;;-0.58;100.00
47054;BME280;32811;52.382;5.270;2023-01-25T02:21:32;103810.69;;;-0.59;100.00
47054;BME280;32811;52.382;5.270;2023-01-25T02:24:09;103827.25;;;-0.54;100.00
47054;BME280;32811;52.382;5.270;2023-01-25T02:26:37;103812.19;;;-0.61;100.00
47054;BME280;32811;52.382;5.270;2023-01-25T02:29:06;103815.91;;;-0.58;100.00
47054;BME280;32811;52.382;5.270;2023-01-25T02:31:33;103815.16;;;-0.66;100.00
47054;BME280;32811;52.382;5.270;2023-01-25T02:34:00;103806.38;;;-0.69;100.00
47054;BME280;32811;52.382;5.270;2023-01-25T02:36:33;103801.13;;;-0.71;100.00
47054;BME280;32811;52.382;5.270;2023-01-25T02:39:07;103811.13;;;-0.64;100.00
47054;BME280;32811;52.382;5.270;2023-01-25T02:41:39;103793.38;;;-0.72;100.00
47054;BME280;32811;52.382;5.270;2023-01-25T02:44:10;103796.78;;;-0.63;100.00
47054;BME280;32811;52.382;5.270;2023-01-25T02:46:39;103800.53;;;-0.59;100.00
47054;BME280;32811;52.382;5.270;2023-01-25T02:49:08;103803.97;;;-0.59;100.00
47054;BME280;32811;52.382;5.270;2023-01-25T02:51:38;103802.03;;;-0.61;100.00
47054;BME280;32811;52.382;5.270;2023-01-25T02:54:06;103788.47;;;-0.62;100.00
47054;BME280;32811;52.382;5.270;2023-01-25T02:56:33;103784.28;;;-0.61;100.00
47054;BME280;32811;52.382;5.270;2023-01-25T02:59:01;103783.53;;;-0.69;100.00
47054;BME280;32811;52.382;5.270;2023-01-25T03:01:35;103785.59;;;-0.65;100.00
47054;BME280;32811;52.382;5.270;2023-01-25T03:04:03;103774.72;;;-0.73;100.00
47054;BME280;32811;52.382;5.270;2023-01-25T03:06:31;103762.31;;;-0.78;100.00
47054;BME280;32811;52.382;5.270;2023-01-25T03:08:58;103784.44;;;-0.60;100.00
47054;BME280;32811;52.382;5.270;2023-01-25T03:11:25;103787.69;;;-0.70;100.00
47054;BME280;32811;52.382;5.270;2023-01-25T03:13:52;103786.53;;;-0.73;100.00
47054;BME280;32811;52.382;5.270;2023-01-25T03:16:19;103789.34;;;-0.79;100.00
47054;BME280;32811;52.382;5.270;2023-01-25T03:18:46;103779.19;;;-0.88;100.00
47054;BME280;32811;52.382;5.270;2023-01-25T03:21:17;103787.25;;;-0.74;100.00
47054;BME280;32811;52.382;5.270;2023-01-25T03:23:46;103770.84;;;-0.78;100.00
47054;BME280;32811;52.382;5.270;2023-01-25T03:26:15;103765.63;;;-0.79;100.00
47054;BME280;32811;52.382;5.270;2023-01-25T03:28:42;103765.63;;;-0.71;100.00
47054;BME280;32811;52.382;5.270;2023-01-25T03:31:11;103760.41;;;-0.72;100.00
47054;BME280;32811;52.382;5.270;2023-01-25T03:33:39;103754.16;;;-0.76;100.00
47054;BME280;32811;52.382;5.270;2023-01-25T03:36:06;103746.38;;;-0.77;100.00
47054;BME280;32811;52.382;5.270;2023-01-25T03:38:34;103742.19;;;-0.77;100.00
47054;BME280;32811;52.382;5.270;2023-01-25T03:41:02;103737.56;;;-0.81;100.00
47054;BME280;32811;52.382;5.270;2023-01-25T03:43:29;103749.53;;;-0.71;100.00
47054;BME280;32811;52.382;5.270;2023-01-25T03:45:58;103742.47;;;-0.74;100.00
47054;BME280;32811;52.382;5.270;2023-01-25T03:48:26;103737.13;;;-0.68;100.00
47054;BME280;32811;52.382;5.270;2023-01-25T03:50:55;103743.25;;;-0.66;100.00
47054;BME280;32811;52.382;5.270;2023-01-25T03:53:25;103737.72;;;-0.71;100.00
47054;BME280;32811;52.382;5.270;2023-01-25T03:56:00;103735.63;;;-0.75;100.00
47054;BME280;32811;52.382;5.270;2023-01-25T03:58:29;103729.34;;;-0.70;100.00
47054;BME280;32811;52.382;5.270;2023-01-25T04:00:57;103739.38;;;-0.63;100.00
47054;BME280;32811;52.382;5.270;2023-01-25T04:03:24;103735.31;;;-0.60;100.00
47054;BME280;32811;52.382;5.270;2023-01-25T04:05:52;103736.53;;;-0.66;100.00
47054;BME280;32811;52.382;5.270;2023-01-25T04:08:19;103733.81;;;-0.67;100.00
47054;BME280;32811;52.382;5.270;2023-01-25T04:10:55;103732.78;;;-0.60;100.00
47054;BME280;32811;52.382;5.270;2023-01-25T04:13:23;103736.84;;;-0.63;100.00
47054;BME280;32811;52.382;5.270;2023-01-25T04:15:51;103719.81;;;-0.72;100.00
47054;BME280;32811;52.382;5.270;2023-01-25T04:18:18;103727.59;;;-0.71;100.00
47054;BME280;32811;52.382;5.270;2023-01-25T04:20:51;103724.72;;;-0.74;100.00
47054;BME280;32811;52.382;5.270;2023-01-25T04:23:18;103716.09;;;-0.76;100.00
47054;BME280;32811;52.382;5.270;2023-01-25T04:26:06;103724.28;;;-0.70;100.00
47054;BME280;32811;52.382;5.270;2023-01-25T04:28:34;103720.72;;;-0.80;100.00
47054;BME280;32811;52.382;5.270;2023-01-25T04:31:01;103718.78;;;-0.74;100.00
47054;BME280;32811;52.382;5.270;2023-01-25T04:33:29;103718.16;;;-0.72;100.00
47054;BME280;32811;52.382;5.270;2023-01-25T04:35:55;103708.78;;;-0.81;100.00
47054;BME280;32811;52.382;5.270;2023-01-25T04:38:22;103713.56;;;-0.76;100.00
47054;BME280;32811;52.382;5.270;2023-01-25T04:40:50;103706.69;;;-0.77;100.00
47054;BME280;32811;52.382;5.270;2023-01-25T04:43:19;103708.78;;;-0.73;100.00
47054;BME280;32811;52.382;5.270;2023-01-25T04:45:46;103697.88;;;-0.72;100.00
47054;BME280;32811;52.382;5.270;2023-01-25T04:48:13;103689.69;;;-0.69;100.00
47054;BME280;32811;52.382;5.270;2023-01-25T04:50:41;103696.38;;;-0.70;100.00
47054;BME280;32811;52.382;5.270;2023-01-25T04:53:09;103695.06;;;-0.75;100.00
47054;BME280;32811;52.382;5.270;2023-01-25T04:55:36;103671.19;;;-0.86;100.00
47054;BME280;32811;52.382;5.270;2023-01-25T04:58:03;103690.28;;;-0.72;100.00
47054;BME280;32811;52.382;5.270;2023-01-25T05:00:30;103681.34;;;-0.77;100.00
47054;BME280;32811;52.382;5.270;2023-01-25T05:02:57;103690.16;;;-0.73;100.00
47054;BME280;32811;52.382;5.270;2023-01-25T05:05:24;103684.63;;;-0.69;100.00
47054;BME280;32811;52.382;5.270;2023-01-25T05:07:51;103689.97;;;-0.66;100.00
47054;BME280;32811;52.382;5.270;2023-01-25T05:10:19;103680.28;;;-0.70;100.00
47054;BME280;32811;52.382;5.270;2023-01-25T05:12:46;103674.47;;;-0.69;100.00
47054;BME280;32811;52.382;5.270;2023-01-25T05:15:13;103682.81;;;-0.70;100.00
47054;BME280;32811;52.382;5.270;2023-01-25T05:17:40;103684.91;;;-0.66;100.00
47054;BME280;32811;52.382;5.270;2023-01-25T05:20:07;103681.16;;;-0.70;100.00
47054;BME280;32811;52.382;5.270;2023-01-25T05:22:34;103686.69;;;-0.74;100.00
47054;BME280;32811;52.382;5.270;2023-01-25T05:25:01;103683.72;;;-0.78;100.00
47054;BME280;32811;52.382;5.270;2023-01-25T05:27:29;103683.25;;;-0.74;100.00
47054;BME280;32811;52.382;5.270;2023-01-25T05:29:56;103690.28;;;-0.72;100.00
47054;BME280;32811;52.382;5.270;2023-01-25T05:32:23;103690.59;;;-0.69;100.00
47054;BME280;32811;52.382;5.270;2023-01-25T05:34:50;103691.63;;;-0.75;100.00
47054;BME280;32811;52.382;5.270;2023-01-25T05:37:19;103697.59;;;-0.75;100.00
47054;BME280;32811;52.382;5.270;2023-01-25T05:39:46;103700.13;;;-0.75;100.00
47054;BME280;32811;52.382;5.270;2023-01-25T05:42:16;103692.81;;;-0.80;100.00
47054;BME280;32811;52.382;5.270;2023-01-25T05:44:43;103681.94;;;-0.79;100.00
47054;BME280;32811;52.382;5.270;2023-01-25T05:47:15;103695.94;;;-0.74;100.00
47054;BME280;32811;52.382;5.270;2023-01-25T05:49:42;103680.00;;;-0.73;100.00
47054;BME280;32811;52.382;5.270;2023-01-25T05:52:13;103687.28;;;-0.76;100.00
47054;BME280;32811;52.382;5.270;2023-01-25T05:54:40;103676.88;;;-0.79;100.00
47054;BME280;32811;52.382;5.270;2023-01-25T05:57:07;103687.44;;;-0.75;100.00
47054;BME280;32811;52.382;5.270;2023-01-25T05:59:34;103681.94;;;-0.88;100.00
47054;BME280;32811;52.382;5.270;2023-01-25T06:02:01;103685.53;;;-0.86;100.00
47054;BME280;32811;52.382;5.270;2023-01-25T06:04:28;103692.69;;;-0.82;100.00
47054;BME280;32811;52.382;5.270;2023-01-25T06:06:54;103697.16;;;-0.79;100.00
47054;BME280;32811;52.382;5.270;2023-01-25T06:09:21;103693.84;;;-0.78;100.00
47054;BME280;32811;52.382;5.270;2023-01-25T06:11:48;103692.38;;;-0.85;100.00
47054;BME280;32811;52.382;5.270;2023-01-25T06:14:15;103691.47;;;-0.77;100.00
47054;BME280;32811;52.382;5.270;2023-01-25T06:16:42;103684.75;;;-0.76;100.00
47054;BME280;32811;52.382;5.270;2023-01-25T06:19:11;103697.44;;;-0.76;100.00
47054;BME280;32811;52.382;5.270;2023-01-25T06:21:38;103692.97;;;-0.79;100.00
47054;BME280;32811;52.382;5.270;2023-01-25T06:24:05;103698.94;;;-0.78;100.00
47054;BME280;32811;52.382;5.270;2023-01-25T06:26:32;103680.63;;;-0.85;100.00
47054;BME280;32811;52.382;5.270;2023-01-25T06:28:59;103690.16;;;-0.91;100.00
47054;BME280;32811;52.382;5.270;2023-01-25T06:31:25;103694.78;;;-0.87;100.00
47054;BME280;32811;52.382;5.270;2023-01-25T06:33:53;103692.38;;;-0.85;100.00
47054;BME280;32811;52.382;5.270;2023-01-25T06:36:21;103688.34;;;-0.83;100.00
47054;BME280;32811;52.382;5.270;2023-01-25T06:38:50;103695.06;;;-0.84;100.00
47054;BME280;32811;52.382;5.270;2023-01-25T06:41:18;103691.03;;;-0.81;100.00
47054;BME280;32811;52.382;5.270;2023-01-25T06:43:45;103691.31;;;-0.78;100.00
47054;BME280;32811;52.382;5.270;2023-01-25T06:46:13;103692.81;;;-0.80;100.00
47054;BME280;32811;52.382;5.270;2023-01-25T06:48:40;103695.22;;;-0.82;100.00
47054;BME280;32811;52.382;5.270;2023-01-25T06:51:13;103695.22;;;-0.82;100.00
47054;BME280;32811;52.382;5.270;2023-01-25T06:53:42;103684.75;;;-0.85;100.00
47054;BME280;32811;52.382;5.270;2023-01-25T06:56:12;103683.00;;;-0.86;100.00
47054;BME280;32811;52.382;5.270;2023-01-25T06:58:40;103678.19;;;-0.92;100.00
47054;BME280;32811;52.382;5.270;2023-01-25T07:01:15;103687.63;;;-0.91;100.00
47054;BME280;32811;52.382;5.270;2023-01-25T07:03:42;103688.81;;;-0.96;100.00
47054;BME280;32811;52.382;5.270;2023-01-25T07:06:09;103677.75;;;-1.05;100.00
47054;BME280;32811;52.382;5.270;2023-01-25T07:08:36;103675.09;;;-1.07;100.00
47054;BME280;32811;52.382;5.270;2023-01-25T07:11:05;103681.34;;;-1.03;100.00
47054;BME280;32811;52.382;5.270;2023-01-25T07:13:35;103676.59;;;-1.09;100.00
47054;BME280;32811;52.382;5.270;2023-01-25T07:16:04;103667.03;;;-1.11;100.00
47054;BME280;32811;52.382;5.270;2023-01-25T07:18:33;103678.34;;;-1.08;100.00
47054;BME280;32811;52.382;5.270;2023-01-25T07:21:04;103688.06;;;-1.03;100.00
47054;BME280;32811;52.382;5.270;2023-01-25T07:23:32;103675.69;;;-1.00;100.00
47054;BME280;32811;52.382;5.270;2023-01-25T07:26:00;103669.88;;;-0.99;100.00
47054;BME280;32811;52.382;5.270;2023-01-25T07:28:27;103677.47;;;-0.99;100.00
47054;BME280;32811;52.382;5.270;2023-01-25T07:30:54;103666.72;;;-1.06;100.00
47054;BME280;32811;52.382;5.270;2023-01-25T07:33:21;103668.22;;;-0.99;100.00
47054;BME280;32811;52.382;5.270;2023-01-25T07:35:48;103668.53;;;-0.96;100.00
47054;BME280;32811;52.382;5.270;2023-01-25T07:38:16;103662.88;;;-0.93;100.00
47054;BME280;32811;52.382;5.270;2023-01-25T07:40:50;103651.84;;;-0.94;100.00
47054;BME280;32811;52.382;5.270;2023-01-25T07:43:17;103658.84;;;-0.91;100.00
47054;BME280;32811;52.382;5.270;2023-01-25T07:45:45;103653.44;;;-0.94;100.00
47054;BME280;32811;52.382;5.270;2023-01-25T07:48:16;103664.03;;;-0.90;100.00
47054;BME280;32811;52.382;5.270;2023-01-25T07:50:44;103638.84;;;-0.97;100.00
47054;BME280;32811;52.382;5.270;2023-01-25T07:53:38;103651.06;;;-0.93;100.00
47054;BME280;32811;52.382;5.270;2023-01-25T07:56:06;103647.22;;;-0.89;100.00
47054;BME280;32811;52.382;5.270;2023-01-25T07:58:33;103642.25;;;-0.88;100.00
47054;BME280;32811;52.382;5.270;2023-01-25T08:01:07;103635.41;;;-0.89;100.00
47054;BME280;32811;52.382;5.270;2023-01-25T08:03:34;103636.47;;;-0.95;100.00
47054;BME280;32811;52.382;5.270;2023-01-25T08:06:01;103645.25;;;-0.92;100.00
47054;BME280;32811;52.382;5.270;2023-01-25T08:08:38;103641.81;;;-0.92;100.00
47054;BME280;32811;52.382;5.270;2023-01-25T08:11:11;103644.97;;;-0.95;100.00
47054;BME280;32811;52.382;5.270;2023-01-25T08:13:39;103648.53;;;-0.93;100.00
47054;BME280;32811;52.382;5.270;2023-01-25T08:16:06;103647.66;;;-0.93;100.00
47054;BME280;32811;52.382;5.270;2023-01-25T08:18:32;103647.94;;;-0.90;100.00
47054;BME280;32811;52.382;5.270;2023-01-25T08:21:02;103648.22;;;-0.87;100.00
47054;BME280;32811;52.382;5.270;2023-01-25T08:23:29;103644.66;;;-0.89;100.00
47054;BME280;32811;52.382;5.270;2023-01-25T08:26:03;103644.78;;;-0.88;100.00
47054;BME280;32811;52.382;5.270;2023-01-25T08:28:31;103636.47;;;-0.87;100.00
47054;BME280;32811;52.382;5.270;2023-01-25T08:31:09;103638.38;;;-0.84;100.00
47054;BME280;32811;52.382;5.270;2023-01-25T08:33:37;103631.22;;;-0.88;100.00
47054;BME280;32811;52.382;5.270;2023-01-25T08:36:05;103629.47;;;-0.89;100.00
47054;BME280;32811;52.382;5.270;2023-01-25T08:38:33;103639.00;;;-0.87;100.00
47054;BME280;32811;52.382;5.270;2023-01-25T08:41:14;103624.81;;;-0.85;100.00
47054;BME280;32811;52.382;5.270;2023-01-25T08:43:43;103605.88;;;-0.88;100.00
47054;BME280;32811;52.382;5.270;2023-01-25T08:46:10;103598.72;;;-0.84;100.00
47054;BME280;32811;52.382;5.270;2023-01-25T08:48:37;103601.09;;;-0.85;100.00
47054;BME280;32811;52.382;5.270;2023-01-25T08:51:07;103601.09;;;-0.85;100.00
47054;BME280;32811;52.382;5.270;2023-01-25T08:53:34;103613.75;;;-0.85;100.00
47054;BME280;32811;52.382;5.270;2023-01-25T08:56:05;103621.84;;;-0.89;100.00
47054;BME280;32811;52.382;5.270;2023-01-25T08:58:32;103612.59;;;-0.89;100.00
47054;BME280;32811;52.382;5.270;2023-01-25T09:01:01;103611.56;;;-0.91;100.00
47054;BME280;32811;52.382;5.270;2023-01-25T09:03:29;103613.31;;;-0.90;100.00
47054;BME280;32811;52.382;5.270;2023-01-25T09:05:56;103614.72;;;-1.02;100.00
47054;BME280;32811;52.382;5.270;2023-01-25T09:08:22;103604.72;;;-1.00;100.00
47054;BME280;32811;52.382;5.270;2023-01-25T09:10:49;103620.94;;;-0.90;100.00
47054;BME280;32811;52.382;5.270;2023-01-25T09:13:16;103605.72;;;-0.90;100.00
47054;BME280;32811;52.382;5.270;2023-01-25T09:15:43;103612.28;;;-0.92;100.00
47054;BME280;32811;52.382;5.270;2023-01-25T09:18:09;103596.63;;;-0.96;100.00
47054;BME280;32811;52.382;5.270;2023-01-25T09:20:39;103596.94;;;-0.93;100.00
47054;BME280;32811;52.382;5.270;2023-01-25T09:23:06;103598.88;;;-0.91;100.00
47054;BME280;32811;52.382;5.270;2023-01-25T09:25:33;103596.19;;;-0.92;100.00
47054;BME280;32811;52.382;5.270;2023-01-25T09:28:01;103602.91;;;-0.93;100.00
47054;BME280;32811;52.382;5.270;2023-01-25T09:30:37;103593.06;;;-0.98;100.00
47054;BME280;32811;52.382;5.270;2023-01-25T09:33:13;103600.22;;;-0.94;100.00
47054;BME280;32811;52.382;5.270;2023-01-25T09:35:46;103594.88;;;-0.97;100.00
47054;BME280;32811;52.382;5.270;2023-01-25T09:38:13;103597.56;;;-0.96;100.00
47054;BME280;32811;52.382;5.270;2023-01-25T09:40:44;103593.06;;;-0.98;100.00
47054;BME280;32811;52.382;5.270;2023-01-25T09:43:33;103591.72;;;-1.03;100.00
47054;BME280;32811;52.382;5.270;2023-01-25T09:46:16;103582.03;;;-1.08;100.00
47054;BME280;32811;52.382;5.270;2023-01-25T09:48:59;103580.72;;;-1.04;100.00
47054;BME280;32811;52.382;5.270;2023-01-25T09:54:38;103579.38;;;-1.00;100.00
47054;BME280;32811;52.382;5.270;2023-01-25T09:57:36;103574.00;;;-1.03;100.00
47054;BME280;32811;52.382;5.270;2023-01-25T10:00:23;103551.50;;;-1.09;100.00
47054;BME280;32811;52.382;5.270;2023-01-25T10:03:30;103558.78;;;-1.03;100.00
47054;BME280;32811;52.382;5.270;2023-01-25T10:06:00;103565.50;;;-0.95;100.00
47054;BME280;32811;52.382;5.270;2023-01-25T10:09:35;103547.47;;;-1.07;100.00
47054;BME280;32811;52.382;5.270;2023-01-25T10:11:30;103549.22;;;-0.97;100.00
47054;BME280;32811;52.382;5.270;2023-01-25T10:13:58;103538.22;;;-1.07;100.00
47054;BME280;32811;52.382;5.270;2023-01-25T10:16:42;103542.22;;;-0.91;100.00
47054;BME280;32811;52.382;5.270;2023-01-25T10:22:10;103519.06;;;-0.86;100.00
47054;BME280;32811;52.382;5.270;2023-01-25T10:30:38;103513.84;;;-0.87;100.00
47054;BME280;32811;52.382;5.270;2023-01-25T10:33:22;103532.75;;;-0.75;100.00
47054;BME280;32811;52.382;5.270;2023-01-25T10:35:49;103527.41;;;-0.78;100.00
47054;BME280;32811;52.382;5.270;2023-01-25T10:38:25;103505.66;;;-0.85;100.00
47054;BME280;32811;52.382;5.270;2023-01-25T10:41:09;103511.69;;;-0.74;100.00
47054;BME280;32811;52.382;5.270;2023-01-25T10:43:37;103505.44;;;-0.69;100.00
47054;BME280;32811;52.382;5.270;2023-01-25T10:46:18;103500.50;;;-0.67;100.00
47054;BME280;32811;52.382;5.270;2023-01-25T10:48:48;103498.09;;;-0.66;100.00
47054;BME280;32811;52.382;5.270;2023-01-25T10:51:32;103495.75;;;-0.73;100.00
47054;BME280;32811;52.382;5.270;2023-01-25T10:54:02;103501.72;;;-0.72;100.00
47054;BME280;32811;52.382;5.270;2023-01-25T10:56:33;103487.72;;;-0.77;100.00
47054;BME280;32811;52.382;5.270;2023-01-25T10:59:07;103485.16;;;-0.69;100.00
47054;BME280;32811;52.382;5.270;2023-01-25T11:01:39;103478.69;;;-0.65;100.00
47054;BME280;32811;52.382;5.270;2023-01-25T11:04:27;103477.53;;;-0.69;100.00
47054;BME280;32811;52.382;5.270;2023-01-25T11:06:55;103467.53;;;-0.67;100.00
47054;BME280;32811;52.382;5.270;2023-01-25T11:09:29;103467.66;;;-0.66;100.00
47054;BME280;32811;52.382;5.270;2023-01-25T11:12:01;103459.22;;;-0.75;100.00
47054;BME280;32811;52.382;5.270;2023-01-25T11:14:30;103460.25;;;-0.73;100.00
47054;BME280;32811;52.382;5.270;2023-01-25T11:16:59;103459.06;;;-0.76;100.00
47054;BME280;32811;52.382;5.270;2023-01-25T11:19:34;103447.91;;;-0.87;100.00
47054;BME280;32811;52.382;5.270;2023-01-25T11:24:46;103447.81;;;-0.89;100.00
47054;BME280;32811;52.382;5.270;2023-01-25T11:27:21;103441.84;;;-0.89;100.00
47054;BME280;32811;52.382;5.270;2023-01-25T11:32:31;103425.75;;;-0.98;100.00
47054;BME280;32811;52.382;5.270;2023-01-25T11:34:58;103413.06;;;-0.98;100.00
47054;BME280;32811;52.382;5.270;2023-01-25T11:40:27;103390.09;;;-0.91;100.00
47054;BME280;32811;52.382;5.270;2023-01-25T11:48:49;103376.19;;;-0.86;100.00
47054;BME280;32811;52.382;5.270;2023-01-25T11:51:30;103367.81;;;-0.85;100.00
47054;BME280;32811;52.382;5.270;2023-01-25T11:59:29;103351.00;;;-0.85;100.00
47054;BME280;32811;52.382;5.270;2023-01-25T12:02:18;103336.47;;;-0.77;100.00
47054;BME280;32811;52.382;5.270;2023-01-25T12:08:21;103321.09;;;-0.78;100.00
47054;BME280;32811;52.382;5.270;2023-01-25T12:21:46;103290.50;;;-0.71;100.00
47054;BME280;32811;52.382;5.270;2023-01-25T12:29:59;103262.94;;;-0.77;100.00
47054;BME280;32811;52.382;5.270;2023-01-25T12:32:36;103252.31;;;-0.73;100.00
47054;BME280;32811;52.382;5.270;2023-01-25T12:37:46;103257.53;;;-0.71;100.00
47054;BME280;32811;52.382;5.270;2023-01-25T12:40:20;103250.81;;;-0.71;100.00
47054;BME280;32811;52.382;5.270;2023-01-25T12:42:55;103242.72;;;-0.67;100.00
47054;BME280;32811;52.382;5.270;2023-01-25T12:45:30;103252.50;;;-0.61;100.00
47054;BME280;32811;52.382;5.270;2023-01-25T12:48:22;103240.59;;;-0.62;100.00
47054;BME280;32811;52.382;5.270;2023-01-25T12:50:57;103238.53;;;-0.66;100.00
47054;BME280;32811;52.382;5.270;2023-01-25T12:53:38;103238.59;;;-0.75;100.00
47054;BME280;32811;52.382;5.270;2023-01-25T12:56:09;103225.66;;;-0.78;100.00
47054;BME280;32811;52.382;5.270;2023-01-25T12:58:51;103228.19;;;-0.78;100.00
47054;BME280;32811;52.382;5.270;2023-01-25T13:12:02;103211.81;;;-0.81;100.00
47054;BME280;32811;52.382;5.270;2023-01-25T13:14:35;103196.59;;;-0.81;100.00
47054;BME280;32811;52.382;5.270;2023-01-25T13:17:22;103211.59;;;-0.74;100.00
47054;BME280;32811;52.382;5.270;2023-01-25T13:19:50;103205.78;;;-0.73;100.00
47054;BME280;32811;52.382;5.270;2023-01-25T13:27:42;103189.25;;;-0.78;100.00
47054;BME280;32811;52.382;5.270;2023-01-25T13:30:28;103184.94;;;-0.79;100.00
47054;BME280;32811;52.382;5.270;2023-01-25T13:32:58;103177.97;;;-0.82;100.00
47054;BME280;32811;52.382;5.270;2023-01-25T13:35:36;103174.66;;;-0.81;100.00
47054;BME280;32811;52.382;5.270;2023-01-25T13:38:30;103173.78;;;-0.81;100.00
47054;BME280;32811;52.382;5.270;2023-01-25T13:41:24;103149.53;;;-0.88;100.00
47054;BME280;32811;52.382;5.270;2023-01-25T13:44:07;103161.09;;;-0.81;100.00
47054;BME280;32811;52.382;5.270;2023-01-25T13:46:37;103161.34;;;-0.78;100.00
47054;BME280;32811;52.382;5.270;2023-01-25T13:49:04;103158.09;;;-0.77;100.00
47054;BME280;32811;52.382;5.270;2023-01-25T13:51:39;103151.34;;;-0.77;100.00
47054;BME280;32811;52.382;5.270;2023-01-25T13:54:14;103146.78;;;-0.81;100.00
47054;BME280;32811;52.382;5.270;2023-01-25T13:56:41;103143.09;;;-0.85;100.00
47054;BME280;32811;52.382;5.270;2023-01-25T13:59:23;103157.75;;;-0.91;100.00
47054;BME280;32811;52.382;5.270;2023-01-25T14:01:50;103150.72;;;-1.03;100.00
47054;BME280;32811;52.382;5.270;2023-01-25T14:04:18;103149.19;;;-1.01;100.00
47054;BME280;32811;52.382;5.270;2023-01-25T14:06:44;103141.53;;;-1.12;100.00
47054;BME280;32811;52.382;5.270;2023-01-25T14:09:14;103142.56;;;-1.10;100.00
47054;BME280;32811;52.382;5.270;2023-01-25T14:11:52;103142.47;;;-1.01;100.00
47054;BME280;32811;52.382;5.270;2023-01-25T14:14:27;103131.22;;;-0.94;100.00
47054;BME280;32811;52.382;5.270;2023-01-25T14:19:36;103143.84;;;-0.86;100.00